Bantam, Connecticut
Current Conditions -  °F | °C
As of 9:35 PM on Sunday 23 Nov 2014 (Local Time) from KOXC Reporting Station
Overcast Overcast  
Wind Chill: 45°   Ceiling: 2900
Heat Index: 45°   Visibility: 10mi
Dew Point: 32°   Wind: 3mph
Humidity: 61%   Direction: 120°ESE
Pressure: 30.12"   Gusts: NA
Location:  41.72°N, 73.24°W
Report Text: KOXC 240235Z 12003KT 10SM OVC029 07/00 A3012 RMK AO1
Loading
Personal Weather Stations






























Interactive Weather Map New forecast layout! Learn more

10-Day Weather Forecast

Advertisements
Track Severe Weather on mobile